Time;durP1;ratioP1;P1;durP2;ratioP2;P2;SDS_P1;SDS_P2;PMS_P1;PMS_P2;Temp;Humidity;BMP_temperature;BMP_pressure;BME280_temperature;BME280_humidity;BME280_pressure;Samples;Min_cycle;Max_cycle;Signal;HPM_P1;HPM_P2
2021/12/05 00:21:40;;;;;;;5.03;4.53;;;;;;;;;;12553099;28;20048;-73
2021/12/05 00:27:47;;;;;;;4.57;4.03;;;;;;;;;;12551628;28;20029;-73
2021/12/05 00:40:44;;;;;;;5.80;5.20;;;;;;;;;;12552299;28;20041;-73
2021/12/05 00:53:16;;;;;;;5.50;5.00;;;;;;;;;;12550462;28;20053;-73
2021/12/05 01:18:13;;;;;;;6.47;5.38;;;;;;;;;;12547637;28;20049;-74
2021/12/05 01:24:35;;;;;;;7.00;5.78;;;;;;;;;;12548628;28;20044;-75
2021/12/05 01:31:09;;;;;;;5.82;5.20;;;;;;;;;;12532208;28;20275;-74
2021/12/05 01:44:23;;;;;;;5.65;4.45;;;;;;;;;;12548539;28;20056;-74
2021/12/05 02:02:42;;;;;;;5.00;4.60;;;;;;;;;;12547009;28;20048;-75
2021/12/05 02:46:22;;;;;;;5.53;5.03;;;;;;;;;;12545058;28;20032;-74
2021/12/05 02:52:31;;;;;;;6.93;6.22;;;;;;;;;;12544210;28;20064;-74
2021/12/05 02:58:47;;;;;;;9.82;8.85;;;;;;;;;;12528078;28;20025;-74
2021/12/05 03:04:51;;;;;;;7.63;6.90;;;;;;;;;;12545329;28;20052;-74
2021/12/05 03:10:54;;;;;;;6.28;5.68;;;;;;;;;;12543781;28;20047;-74
2021/12/05 03:16:56;;;;;;;5.45;4.95;;;;;;;;;;12544878;28;20039;-74
2021/12/05 03:23:00;;;;;;;5.88;5.15;;;;;;;;;;12545495;28;20052;-74
2021/12/05 03:29:04;;;;;;;5.45;4.95;;;;;;;;;;12543306;28;20033;-74
2021/12/05 03:35:07;;;;;;;4.90;4.50;;;;;;;;;;12543628;28;20041;-74
2021/12/05 03:41:09;;;;;;;6.60;6.00;;;;;;;;;;12541920;28;20036;-74
2021/12/05 03:47:13;;;;;;;7.00;6.30;;;;;;;;;;12526314;28;20037;-74
2021/12/05 03:53:15;;;;;;;;;;;;;;;;;;12543009;28;20060;-74
2021/12/05 03:59:18;;;;;;;6.72;5.85;;;;;;;;;;12542591;28;19916;-74
2021/12/05 04:05:22;;;;;;;10.18;9.13;;;;;;;;;;12544140;28;20045;-74
2021/12/05 04:11:29;;;;;;;5.85;5.28;;;;;;;;;;12525626;28;20053;-74
2021/12/05 04:17:31;;;;;;;4.90;4.45;;;;;;;;;;12542112;28;20033;-74
2021/12/05 04:23:35;;;;;;;6.03;5.43;;;;;;;;;;12542090;28;20122;-74
2021/12/05 04:29:37;;;;;;;5.93;5.33;;;;;;;;;;12542188;28;20493;-74
2021/12/05 04:35:41;;;;;;;5.13;4.65;;;;;;;;;;12542333;28;20053;-74
2021/12/05 04:41:43;;;;;;;6.50;5.90;;;;;;;;;;12541903;28;20044;-74
2021/12/05 04:47:46;;;;;;;11.13;10.03;;;;;;;;;;12541393;28;20290;-75
2021/12/05 04:53:48;;;;;;;12.43;11.23;;;;;;;;;;12527906;28;20049;-74
2021/12/05 04:59:53;;;;;;;9.90;8.90;;;;;;;;;;12549677;28;20036;-74
2021/12/05 05:06:09;;;;;;;8.25;7.45;;;;;;;;;;12549778;28;20052;-74
2021/12/05 05:12:11;;;;;;;9.10;8.20;;;;;;;;;;12532683;28;20075;-74
2021/12/05 05:18:13;;;;;;;12.80;11.53;;;;;;;;;;12549219;28;20398;-74
2021/12/05 05:30:52;;;;;;;8.60;7.70;;;;;;;;;;12548574;28;20036;-74
2021/12/05 05:43:54;;;;;;;9.30;8.32;;;;;;;;;;12548212;28;20045;-74
2021/12/05 05:55:58;;;;;;;6.88;6.13;;;;;;;;;;12548556;28;20056;-75
2021/12/05 06:08:01;;;;;;;10.35;9.35;;;;;;;;;;12547795;28;20418;-74
2021/12/05 06:14:03;;;;;;;14.82;13.43;;;;;;;;;;12547984;28;20032;-75
2021/12/05 06:20:12;;;;;;;15.00;13.43;;;;;;;;;;12547708;28;20035;-75
2021/12/05 06:26:20;;;;;;;10.40;9.40;;;;;;;;;;12547214;28;20036;-74
2021/12/05 06:51:10;;;;;;;20.92;18.75;;;;;;;;;;12544602;28;20033;-75
2021/12/05 06:57:12;;;;;;;18.42;16.52;;;;;;;;;;12545482;28;20039;-74
2021/12/05 07:03:14;;;;;;;14.82;13.07;;;;;;;;;;12545455;28;20521;-74
2021/12/05 07:09:16;;;;;;;13.88;12.38;;;;;;;;;;12545277;28;20546;-75
2021/12/05 07:15:32;;;;;;;22.95;19.70;;;;;;;;;;12544621;28;20048;-75
2021/12/05 07:46:40;;;;;;;19.40;16.95;;;;;;;;;;12531634;28;20482;-75
2021/12/05 07:52:47;;;;;;;21.00;17.38;;;;;;;;;;12542567;28;20517;-74
2021/12/05 07:59:08;;;;;;;14.25;12.85;;;;;;;;;;12542651;28;20052;-74
2021/12/05 08:17:52;;;;;;;10.65;9.65;;;;;;;;;;12542865;28;20501;-75
2021/12/05 08:23:54;;;;;;;11.23;10.13;;;;;;;;;;12525455;28;20037;-73
2021/12/05 08:30:05;;;;;;;10.55;9.45;;;;;;;;;;12546879;28;20037;-72
2021/12/05 09:26:54;;;;;;;7.75;7.05;;;;;;;;;;12548923;28;20036;-74
2021/12/05 10:11:20;;;;;;;24.65;21.70;;;;;;;;;;12547031;28;20041;-74
2021/12/05 10:17:42;;;;;;;15.18;11.85;;;;;;;;;;12529848;28;20040;-73
2021/12/05 10:37:26;;;;;;;19.30;17.33;;;;;;;;;;12547724;28;20155;-73
2021/12/05 10:43:28;;;;;;;25.00;22.52;;;;;;;;;;12545531;28;20056;-73
2021/12/05 10:49:32;;;;;;;22.63;20.40;;;;;;;;;;12546317;28;20187;-74
2021/12/05 10:55:33;;;;;;;21.67;19.40;;;;;;;;;;12544243;28;20048;-74
2021/12/05 11:01:35;;;;;;;15.95;14.35;;;;;;;;;;12527611;28;20052;-74
2021/12/05 11:07:38;;;;;;;23.42;20.80;;;;;;;;;;12543799;28;20498;-73
2021/12/05 11:13:40;;;;;;;23.10;18.52;;;;;;;;;;12545129;28;20540;-74
2021/12/05 11:19:47;;;;;;;22.63;20.13;;;;;;;;;;12544943;28;20037;-74
2021/12/05 11:25:50;;;;;;;18.38;16.45;;;;;;;;;;12544817;28;20037;-73
2021/12/05 11:31:53;;;;;;;17.63;14.95;;;;;;;;;;12544917;28;20053;-73
2021/12/05 11:37:55;;;;;;;18.98;16.77;;;;;;;;;;12544278;28;20497;-73
2021/12/05 11:43:59;;;;;;;19.10;16.45;;;;;;;;;;12542762;28;20037;-73
2021/12/05 11:50:08;;;;;;;16.70;14.82;;;;;;;;;;12542662;28;20044;-73
2021/12/05 11:56:10;;;;;;;12.40;11.13;;;;;;;;;;12543708;28;20052;-74
2021/12/05 12:02:13;;;;;;;13.97;12.57;;;;;;;;;;12543278;28;20033;-74
2021/12/05 12:08:15;;;;;;;12.55;11.20;;;;;;;;;;12554271;28;20056;-73
2021/12/05 12:14:17;;;;;;;16.20;14.50;;;;;;;;;;12553175;28;20398;-73
2021/12/05 12:20:21;;;;;;;23.27;20.85;;;;;;;;;;12551828;28;20294;-74
2021/12/05 12:26:24;;;;;;;23.50;20.95;;;;;;;;;;12551385;28;20040;-73
2021/12/05 12:32:30;;;;;;;29.83;26.60;;;;;;;;;;12534429;28;20044;-74
2021/12/05 12:38:31;;;;;;;23.00;20.58;;;;;;;;;;12552486;28;20037;-74
2021/12/05 12:44:33;;;;;;;22.48;20.08;;;;;;;;;;12552199;28;20036;-74
2021/12/05 12:50:51;;;;;;;19.90;17.80;;;;;;;;;;12551854;28;20037;-74
2021/12/05 12:57:00;;;;;;;19.58;17.38;;;;;;;;;;12550382;28;20041;-74
2021/12/05 13:03:14;;;;;;;20.38;18.17;;;;;;;;;;12550929;28;20424;-74
2021/12/05 13:15:44;;;;;;;14.55;13.05;;;;;;;;;;12539514;28;20049;-74
2021/12/05 13:21:49;;;;;;;13.55;12.15;;;;;;;;;;12549392;28;20029;-74
2021/12/05 13:27:51;;;;;;;10.45;8.77;;;;;;;;;;12549902;28;20028;-74
2021/12/05 13:34:12;;;;;;;8.10;7.30;;;;;;;;;;12548631;28;20041;-73
2021/12/05 13:40:22;;;;;;;10.40;9.35;;;;;;;;;;12549656;28;20083;-74
2021/12/05 13:46:31;;;;;;;10.80;9.57;;;;;;;;;;12549213;28;20033;-73
2021/12/05 13:52:36;;;;;;;7.78;6.97;;;;;;;;;;12547836;28;20045;-74
2021/12/05 13:58:43;;;;;;;11.27;10.07;;;;;;;;;;12547511;28;20037;-73
2021/12/05 14:04:45;;;;;;;17.40;15.50;;;;;;;;;;12547230;28;20309;-74
2021/12/05 14:11:04;;;;;;;17.35;15.55;;;;;;;;;;12547970;28;20032;-73
2021/12/05 14:17:16;;;;;;;17.13;15.38;;;;;;;;;;12547454;28;20052;-73
2021/12/05 14:23:22;;;;;;;24.80;21.53;;;;;;;;;;12546047;28;20065;-73
2021/12/05 14:29:26;;;;;;;21.20;17.40;;;;;;;;;;12546131;28;20040;-74
2021/12/05 14:35:29;;;;;;;23.33;20.65;;;;;;;;;;12545936;28;20040;-74
2021/12/05 14:41:32;;;;;;;17.27;15.43;;;;;;;;;;12546631;28;20037;-74
2021/12/05 14:47:36;;;;;;;28.00;20.87;;;;;;;;;;12546262;28;20037;-74
2021/12/05 14:53:40;;;;;;;19.67;17.55;;;;;;;;;;12545912;28;20037;-74
2021/12/05 14:59:43;;;;;;;19.83;17.25;;;;;;;;;;12545534;28;20040;-73
2021/12/05 15:05:47;;;;;;;20.67;17.17;;;;;;;;;;12545070;28;20049;-73
2021/12/05 15:11:54;;;;;;;26.10;23.25;;;;;;;;;;12543680;28;20059;-73
2021/12/05 15:17:56;;;;;;;22.38;20.00;;;;;;;;;;12544748;28;20040;-74
2021/12/05 15:23:58;;;;;;;18.27;15.77;;;;;;;;;;12543185;28;20037;-74
2021/12/05 15:30:01;;;;;;;21.55;19.27;;;;;;;;;;12543370;28;20760;-74
2021/12/05 15:36:04;;;;;;;19.50;17.50;;;;;;;;;;12544874;28;20040;-74
2021/12/05 15:42:13;;;;;;;24.75;22.15;;;;;;;;;;12544323;28;20029;-74
2021/12/05 15:48:22;;;;;;;23.63;20.90;;;;;;;;;;12544049;28;20402;-74
2021/12/05 15:54:24;;;;;;;15.13;13.68;;;;;;;;;;12543716;28;20040;-74
2021/12/05 16:00:27;;;;;;;12.93;11.65;;;;;;;;;;12542343;28;20033;-74
2021/12/05 16:06:39;;;;;;;9.85;8.75;;;;;;;;;;12542273;28;20049;-74
2021/12/05 16:12:43;;;;;;;13.65;12.25;;;;;;;;;;12543240;28;20076;-74
2021/12/05 16:18:48;;;;;;;13.23;11.93;;;;;;;;;;12543129;28;20202;-73
2021/12/05 16:24:49;;;;;;;11.82;10.63;;;;;;;;;;12542304;28;20041;-74
2021/12/05 16:30:56;;;;;;;8.82;8.00;;;;;;;;;;12541676;28;20033;-73
2021/12/05 16:37:03;;;;;;;9.38;8.48;;;;;;;;;;12541740;28;20056;-73
2021/12/05 16:43:09;;;;;;;7.15;6.45;;;;;;;;;;12542631;28;20412;-73
2021/12/05 16:49:13;;;;;;;5.28;4.43;;;;;;;;;;12544208;28;20021;-73
2021/12/05 16:55:26;;;;;;;4.25;3.85;;;;;;;;;;12551118;28;20045;-73
2021/12/05 17:01:28;;;;;;;3.65;2.85;;;;;;;;;;12550138;28;20394;-73
2021/12/05 17:07:36;;;;;;;3.35;3.05;;;;;;;;;;12533542;28;20398;-73
2021/12/05 17:13:44;;;;;;;2.70;2.50;;;;;;;;;;12551305;28;20486;-73
2021/12/05 17:19:48;;;;;;;2.42;2.22;;;;;;;;;;12550459;28;20047;-74
2021/12/05 17:25:55;;;;;;;2.20;2.00;;;;;;;;;;12548704;28;20386;-73
2021/12/05 17:32:05;;;;;;;1.70;1.40;;;;;;;;;;12549567;28;20044;-73
2021/12/05 17:38:07;;;;;;;2.40;2.20;;;;;;;;;;12548016;28;20482;-73
2021/12/05 17:44:09;;;;;;;1.92;1.83;;;;;;;;;;12547932;28;20037;-74
2021/12/05 17:50:15;;;;;;;1.70;1.40;;;;;;;;;;12547543;28;20025;-73
2021/12/05 17:56:30;;;;;;;1.23;1.13;;;;;;;;;;12547248;28;20292;-74
2021/12/05 18:08:47;;;;;;;2.20;1.90;;;;;;;;;;12548134;28;20053;-73
2021/12/05 18:14:51;;;;;;;2.42;2.22;;;;;;;;;;12547709;28;20041;-74
2021/12/05 18:20:52;;;;;;;1.40;1.30;;;;;;;;;;12547453;28;20029;-74
2021/12/05 18:26:54;;;;;;;1.65;1.55;;;;;;;;;;12547149;28;20073;-74
2021/12/05 18:32:58;;;;;;;0.93;0.93;;;;;;;;;;12545651;28;20071;-73
2021/12/05 18:39:00;;;;;;;1.95;1.85;;;;;;;;;;12545637;28;20044;-73
2021/12/05 18:45:05;;;;;;;2.57;2.37;;;;;;;;;;12546720;28;20044;-73
2021/12/05 18:51:06;;;;;;;2.28;2.17;;;;;;;;;;12545037;28;20033;-73
2021/12/05 18:57:09;;;;;;;1.52;1.42;;;;;;;;;;12545884;28;20033;-73
2021/12/05 19:15:42;;;;;;;4.88;4.47;;;;;;;;;;12543638;28;20056;-73
2021/12/05 19:21:46;;;;;;;10.85;8.80;;;;;;;;;;12544099;28;20391;-73
2021/12/05 19:27:49;;;;;;;10.75;8.75;;;;;;;;;;12544824;28;20048;-74
2021/12/05 19:33:50;;;;;;;11.23;9.48;;;;;;;;;;12544805;28;20045;-73
2021/12/05 19:39:52;;;;;;;7.95;6.97;;;;;;;;;;12543137;28;20041;-74
2021/12/05 19:45:55;;;;;;;5.30;4.80;;;;;;;;;;12544119;28;20474;-74
2021/12/05 19:51:58;;;;;;;4.50;4.10;;;;;;;;;;12542520;28;20040;-73
2021/12/05 19:58:00;;;;;;;5.38;4.97;;;;;;;;;;12543792;28;20052;-73
2021/12/05 20:04:03;;;;;;;5.50;5.00;;;;;;;;;;12543432;28;20045;-74
2021/12/05 20:10:06;;;;;;;3.97;3.67;;;;;;;;;;12543293;28;20044;-74
2021/12/05 20:16:09;;;;;;;6.13;5.53;;;;;;;;;;12542130;28;20037;-74
2021/12/05 20:22:10;;;;;;;5.07;4.57;;;;;;;;;;12543217;28;20505;-73
2021/12/05 20:28:12;;;;;;;5.28;4.63;;;;;;;;;;12551899;28;20051;-74
2021/12/05 20:34:14;;;;;;;3.35;3.05;;;;;;;;;;12552151;28;20406;-74
2021/12/05 20:40:21;;;;;;;3.78;3.47;;;;;;;;;;12550131;28;20409;-73
2021/12/05 20:46:23;;;;;;;3.85;3.55;;;;;;;;;;12550314;28;20033;-74
2021/12/05 20:52:25;;;;;;;4.60;4.15;;;;;;;;;;12550439;28;20032;-74
2021/12/05 20:58:26;;;;;;;5.28;4.75;;;;;;;;;;12548881;28;20033;-74
2021/12/05 21:04:28;;;;;;;4.93;4.53;;;;;;;;;;12532232;28;20045;-74
2021/12/05 21:10:32;;;;;;;5.05;4.65;;;;;;;;;;12532781;28;20406;-74
2021/12/05 21:16:33;;;;;;;4.95;4.55;;;;;;;;;;12550732;28;20044;-74
2021/12/05 21:22:35;;;;;;;5.20;4.70;;;;;;;;;;12550245;28;20037;-74
2021/12/05 21:28:37;;;;;;;4.10;3.80;;;;;;;;;;12550156;28;20028;-74
2021/12/05 21:34:39;;;;;;;4.57;4.20;;;;;;;;;;12550406;28;20367;-75
2021/12/05 21:40:44;;;;;;;5.30;4.80;;;;;;;;;;12548601;28;20506;-74
2021/12/05 21:46:45;;;;;;;4.70;4.30;;;;;;;;;;12550074;28;20032;-74
2021/12/05 21:52:50;;;;;;;4.78;3.78;;;;;;;;;;12548362;28;20044;-73
2021/12/05 21:58:52;;;;;;;4.40;4.03;;;;;;;;;;12548745;28;20025;-74
2021/12/05 22:04:54;;;;;;;4.40;4.00;;;;;;;;;;12548378;28;20049;-74
2021/12/05 22:10:56;;;;;;;4.60;4.20;;;;;;;;;;12548374;28;20562;-73
2021/12/05 22:17:00;;;;;;;4.80;4.28;;;;;;;;;;12529932;28;20139;-74
2021/12/05 22:23:02;;;;;;;4.80;4.32;;;;;;;;;;12546652;28;20037;-74
2021/12/05 22:29:05;;;;;;;5.50;5.00;;;;;;;;;;12546334;28;20036;-74
2021/12/05 22:35:07;;;;;;;7.10;5.93;;;;;;;;;;12547859;28;20494;-74
2021/12/05 22:41:10;;;;;;;4.85;4.45;;;;;;;;;;12545825;28;20390;-74
2021/12/05 22:47:11;;;;;;;5.65;5.15;;;;;;;;;;12546247;28;20060;-74
2021/12/05 22:53:13;;;;;;;8.50;7.63;;;;;;;;;;12544947;28;20041;-74
2021/12/05 22:59:15;;;;;;;7.32;6.63;;;;;;;;;;12546615;28;20367;-74
2021/12/05 23:05:16;;;;;;;6.47;5.82;;;;;;;;;;12545763;28;20053;-74
2021/12/05 23:11:18;;;;;;;5.75;5.28;;;;;;;;;;12545500;28;20044;-74
2021/12/05 23:17:20;;;;;;;6.88;5.28;;;;;;;;;;12545150;28;20048;-73
2021/12/05 23:23:22;;;;;;;9.55;7.47;;;;;;;;;;12545254;28;20395;-73
2021/12/05 23:29:26;;;;;;;9.68;7.72;;;;;;;;;;12544993;28;20513;-74
2021/12/05 23:35:28;;;;;;;15.95;12.65;;;;;;;;;;12527281;28;20045;-74
2021/12/05 23:41:30;;;;;;;17.85;12.70;;;;;;;;;;12543096;28;20036;-74
2021/12/05 23:47:33;;;;;;;9.15;8.13;;;;;;;;;;12544175;28;20036;-74
2021/12/05 23:53:35;;;;;;;23.77;18.20;;;;;;;;;;12543287;28;20045;-74
2021/12/05 23:59:37;;;;;;;14.77;11.60;;;;;;;;;;12547951;28;20052;-74
